sensor_id;sensor_type;location;lat;lon;timestamp;pressure;altitude;pressure_sealevel;temperature;humidity
49759;BME280;35654;46.080;11.118;2022-09-06T00:01:15;99836.06;;;22.07;78.12
49759;BME280;35654;46.080;11.118;2022-09-06T00:03:42;99839.13;;;22.02;78.10
49759;BME280;35654;46.080;11.118;2022-09-06T00:06:15;99835.53;;;22.01;78.06
49759;BME280;35654;46.080;11.118;2022-09-06T00:08:42;99834.59;;;21.97;77.43
49759;BME280;35654;46.080;11.118;2022-09-06T00:11:08;99831.09;;;22.00;77.09
49759;BME280;35654;46.080;11.118;2022-09-06T00:13:34;99835.97;;;22.03;76.81
49759;BME280;35654;46.080;11.118;2022-09-06T00:16:06;99831.56;;;22.02;76.76
49759;BME280;35654;46.080;11.118;2022-09-06T00:18:32;99829.41;;;21.96;76.99
49759;BME280;35654;46.080;11.118;2022-09-06T00:20:58;99823.38;;;21.94;76.48
49759;BME280;35654;46.080;11.118;2022-09-06T00:23:23;99821.22;;;21.87;77.15
49759;BME280;35654;46.080;11.118;2022-09-06T00:25:48;99822.72;;;21.85;77.32
49759;BME280;35654;46.080;11.118;2022-09-06T00:28:14;99817.03;;;21.81;77.73
49759;BME280;35654;46.080;11.118;2022-09-06T00:30:40;99814.16;;;21.78;78.43
49759;BME280;35654;46.080;11.118;2022-09-06T00:33:05;99814.16;;;21.78;78.72
49759;BME280;35654;46.080;11.118;2022-09-06T00:35:31;99807.78;;;21.77;78.54
49759;BME280;35654;46.080;11.118;2022-09-06T00:37:58;99808.13;;;21.76;78.34
49759;BME280;35654;46.080;11.118;2022-09-06T00:40:25;99808.50;;;21.74;78.55
49759;BME280;35654;46.080;11.118;2022-09-06T00:42:50;99801.91;;;21.67;78.86
49759;BME280;35654;46.080;11.118;2022-09-06T00:45:16;99806.22;;;21.64;79.05
49759;BME280;35654;46.080;11.118;2022-09-06T00:47:42;99810.66;;;21.65;79.43
49759;BME280;35654;46.080;11.118;2022-09-06T00:50:09;99813.00;;;21.63;79.06
49759;BME280;35654;46.080;11.118;2022-09-06T00:52:38;99810.91;;;21.60;78.97
49759;BME280;35654;46.080;11.118;2022-09-06T00:55:05;99815.56;;;21.56;79.05
49759;BME280;35654;46.080;11.118;2022-09-06T00:57:31;99815.94;;;21.55;79.30
49759;BME280;35654;46.080;11.118;2022-09-06T00:59:57;99823.94;;;21.56;79.27
49759;BME280;35654;46.080;11.118;2022-09-06T01:02:24;99818.25;;;21.53;78.88
49759;BME280;35654;46.080;11.118;2022-09-06T01:04:50;99823.38;;;21.51;78.90
49759;BME280;35654;46.080;11.118;2022-09-06T01:15:37;99830.34;;;21.29;80.91
49759;BME280;35654;46.080;11.118;2022-09-06T01:24:33;99827.09;;;21.27;80.38
49759;BME280;35654;46.080;11.118;2022-09-06T01:29:47;99825.94;;;21.28;80.53
49759;BME280;35654;46.080;11.118;2022-09-06T01:32:22;99825.47;;;21.26;79.97
49759;BME280;35654;46.080;11.118;2022-09-06T01:34:54;99829.22;;;21.18;80.12
49759;BME280;35654;46.080;11.118;2022-09-06T01:37:22;99823.44;;;21.11;80.37
49759;BME280;35654;46.080;11.118;2022-09-06T01:39:48;99820.22;;;21.09;80.51
49759;BME280;35654;46.080;11.118;2022-09-06T01:42:25;99832.16;;;21.09;80.98
49759;BME280;35654;46.080;11.118;2022-09-06T01:44:58;99829.94;;;21.03;81.42
49759;BME280;35654;46.080;11.118;2022-09-06T01:50:33;99839.34;;;20.98;81.66
49759;BME280;35654;46.080;11.118;2022-09-06T02:03:36;99837.53;;;20.78;82.58
49759;BME280;35654;46.080;11.118;2022-09-06T02:06:24;99835.34;;;20.83;82.21
49759;BME280;35654;46.080;11.118;2022-09-06T02:09:04;99831.16;;;20.89;81.90
49759;BME280;35654;46.080;11.118;2022-09-06T02:11:34;99830.34;;;20.89;81.73
49759;BME280;35654;46.080;11.118;2022-09-06T02:14:10;99836.97;;;20.84;81.49
49759;BME280;35654;46.080;11.118;2022-09-06T02:16:40;99846.34;;;20.80;81.71
49759;BME280;35654;46.080;11.118;2022-09-06T02:19:19;99847.06;;;20.77;81.66
49759;BME280;35654;46.080;11.118;2022-09-06T02:21:46;99852.66;;;20.77;81.31
49759;BME280;35654;46.080;11.118;2022-09-06T02:24:22;99853.09;;;20.79;81.22
49759;BME280;35654;46.080;11.118;2022-09-06T02:26:51;99850.31;;;20.79;81.61
49759;BME280;35654;46.080;11.118;2022-09-06T02:29:17;99847.06;;;20.77;81.50
49759;BME280;35654;46.080;11.118;2022-09-06T02:31:57;99845.94;;;20.66;82.37
49759;BME280;35654;46.080;11.118;2022-09-06T02:34:24;99845.25;;;20.57;82.97
49759;BME280;35654;46.080;11.118;2022-09-06T02:36:49;99850.31;;;20.55;83.36
49759;BME280;35654;46.080;11.118;2022-09-06T02:39:15;99849.53;;;20.54;83.83
49759;BME280;35654;46.080;11.118;2022-09-06T02:41:42;99851.16;;;20.55;83.80
49759;BME280;35654;46.080;11.118;2022-09-06T02:44:10;99851.63;;;20.57;83.42
49759;BME280;35654;46.080;11.118;2022-09-06T02:46:35;99855.56;;;20.56;83.63
49759;BME280;35654;46.080;11.118;2022-09-06T02:49:00;99856.00;;;20.58;83.47
49759;BME280;35654;46.080;11.118;2022-09-06T02:51:26;99855.81;;;20.51;84.19
49759;BME280;35654;46.080;11.118;2022-09-06T02:53:51;99849.91;;;20.41;85.20
49759;BME280;35654;46.080;11.118;2022-09-06T02:56:17;99846.75;;;20.42;85.20
49759;BME280;35654;46.080;11.118;2022-09-06T02:58:42;99839.13;;;20.39;85.67
49759;BME280;35654;46.080;11.118;2022-09-06T03:01:08;99833.09;;;20.37;85.99
49759;BME280;35654;46.080;11.118;2022-09-06T03:03:33;99838.22;;;20.35;86.28
49759;BME280;35654;46.080;11.118;2022-09-06T03:05:59;99848.97;;;20.37;86.64
49759;BME280;35654;46.080;11.118;2022-09-06T03:08:25;99838.22;;;20.35;84.90
49759;BME280;35654;46.080;11.118;2022-09-06T03:10:55;99837.03;;;20.36;84.87
49759;BME280;35654;46.080;11.118;2022-09-06T03:13:21;99841.91;;;20.39;84.26
49759;BME280;35654;46.080;11.118;2022-09-06T03:15:55;99842.25;;;20.38;83.49
49759;BME280;35654;46.080;11.118;2022-09-06T03:18:22;99850.13;;;20.36;82.51
49759;BME280;35654;46.080;11.118;2022-09-06T03:20:50;99842.47;;;20.32;82.46
49759;BME280;35654;46.080;11.118;2022-09-06T03:23:17;99855.91;;;20.30;81.95
49759;BME280;35654;46.080;11.118;2022-09-06T03:25:43;99855.47;;;20.28;81.70
49759;BME280;35654;46.080;11.118;2022-09-06T03:28:09;99850.09;;;20.23;82.13
49759;BME280;35654;46.080;11.118;2022-09-06T03:30:34;99851.25;;;20.22;83.33
49759;BME280;35654;46.080;11.118;2022-09-06T03:33:00;99848.72;;;20.17;84.83
49759;BME280;35654;46.080;11.118;2022-09-06T03:35:25;99849.72;;;20.13;86.09
49759;BME280;35654;46.080;11.118;2022-09-06T03:37:50;99839.66;;;20.08;86.53
49759;BME280;35654;46.080;11.118;2022-09-06T03:40:16;99843.94;;;20.06;87.07
49759;BME280;35654;46.080;11.118;2022-09-06T03:42:41;99833.97;;;20.05;86.95
49759;BME280;35654;46.080;11.118;2022-09-06T03:45:07;99841.84;;;20.03;86.35
49759;BME280;35654;46.080;11.118;2022-09-06T03:47:33;99845.00;;;20.01;85.52
49759;BME280;35654;46.080;11.118;2022-09-06T03:49:58;99845.31;;;20.00;84.45
49759;BME280;35654;46.080;11.118;2022-09-06T03:52:24;99846.38;;;19.95;84.31
49759;BME280;35654;46.080;11.118;2022-09-06T03:54:49;99844.41;;;19.96;83.74
49759;BME280;35654;46.080;11.118;2022-09-06T03:57:14;99849.88;;;20.04;83.61
49759;BME280;35654;46.080;11.118;2022-09-06T03:59:40;99842.09;;;20.10;83.87
49759;BME280;35654;46.080;11.118;2022-09-06T04:02:05;99839.41;;;20.13;83.90
49759;BME280;35654;46.080;11.118;2022-09-06T04:04:31;99831.44;;;20.12;83.92
49759;BME280;35654;46.080;11.118;2022-09-06T04:06:56;99835.94;;;20.16;84.24
49759;BME280;35654;46.080;11.118;2022-09-06T04:09:22;99833.53;;;20.15;84.27
49759;BME280;35654;46.080;11.118;2022-09-06T04:11:48;99830.38;;;20.16;84.39
49759;BME280;35654;46.080;11.118;2022-09-06T04:14:13;99831.94;;;20.26;84.18
49759;BME280;35654;46.080;11.118;2022-09-06T04:16:38;99830.56;;;20.32;83.79
49759;BME280;35654;46.080;11.118;2022-09-06T04:19:04;99841.78;;;20.36;83.52
49759;BME280;35654;46.080;11.118;2022-09-06T04:21:30;99829.84;;;20.35;82.67
49759;BME280;35654;46.080;11.118;2022-09-06T04:23:55;99828.22;;;20.34;82.39
49759;BME280;35654;46.080;11.118;2022-09-06T04:26:21;99831.22;;;20.41;82.18
49759;BME280;35654;46.080;11.118;2022-09-06T04:28:46;99836.22;;;20.48;81.50
49759;BME280;35654;46.080;11.118;2022-09-06T04:31:12;99834.00;;;20.53;80.79
49759;BME280;35654;46.080;11.118;2022-09-06T04:33:37;99827.38;;;20.58;80.89
49759;BME280;35654;46.080;11.118;2022-09-06T04:36:05;99828.06;;;20.55;81.37
49759;BME280;35654;46.080;11.118;2022-09-06T04:38:38;99822.66;;;20.46;82.67
49759;BME280;35654;46.080;11.118;2022-09-06T04:41:04;99827.75;;;20.44;82.48
49759;BME280;35654;46.080;11.118;2022-09-06T04:43:30;99821.84;;;20.46;82.64
49759;BME280;35654;46.080;11.118;2022-09-06T04:45:55;99827.75;;;20.44;82.88
49759;BME280;35654;46.080;11.118;2022-09-06T04:48:20;99830.44;;;20.41;82.59
49759;BME280;35654;46.080;11.118;2022-09-06T04:50:46;99825.91;;;20.36;82.88
49759;BME280;35654;46.080;11.118;2022-09-06T04:53:11;99827.88;;;20.36;83.07
49759;BME280;35654;46.080;11.118;2022-09-06T04:55:37;99831.47;;;20.36;83.09
49759;BME280;35654;46.080;11.118;2022-09-06T04:58:03;99834.38;;;20.40;83.06
49759;BME280;35654;46.080;11.118;2022-09-06T05:00:30;99837.72;;;20.45;82.83
49759;BME280;35654;46.080;11.118;2022-09-06T05:02:56;99853.34;;;20.50;82.20
49759;BME280;35654;46.080;11.118;2022-09-06T05:05:22;99852.31;;;20.54;81.72
49759;BME280;35654;46.080;11.118;2022-09-06T05:07:52;99848.47;;;20.59;81.08
49759;BME280;35654;46.080;11.118;2022-09-06T05:10:18;99851.25;;;20.59;80.07
49759;BME280;35654;46.080;11.118;2022-09-06T05:12:46;99841.41;;;20.61;80.04
49759;BME280;35654;46.080;11.118;2022-09-06T05:15:12;99840.00;;;20.67;80.55
49759;BME280;35654;46.080;11.118;2022-09-06T05:17:38;99849.88;;;20.65;80.68
49759;BME280;35654;46.080;11.118;2022-09-06T05:20:04;99841.06;;;20.63;81.33
49759;BME280;35654;46.080;11.118;2022-09-06T05:22:31;99847.66;;;20.58;81.75
49759;BME280;35654;46.080;11.118;2022-09-06T05:24:58;99849.06;;;20.52;81.71
49759;BME280;35654;46.080;11.118;2022-09-06T05:27:23;99851.06;;;20.52;82.01
49759;BME280;35654;46.080;11.118;2022-09-06T05:29:49;99854.50;;;20.61;81.86
49759;BME280;35654;46.080;11.118;2022-09-06T05:32:14;99856.13;;;20.74;80.41
49759;BME280;35654;46.080;11.118;2022-09-06T05:34:40;99861.06;;;20.92;78.91
49759;BME280;35654;46.080;11.118;2022-09-06T05:37:05;99860.13;;;21.01;79.10
49759;BME280;35654;46.080;11.118;2022-09-06T05:41:58;99874.59;;;21.06;79.06
49759;BME280;35654;46.080;11.118;2022-09-06T05:44:26;99868.00;;;21.11;78.64
49759;BME280;35654;46.080;11.118;2022-09-06T05:46:53;99868.47;;;21.13;78.75
49759;BME280;35654;46.080;11.118;2022-09-06T05:49:20;99864.28;;;21.19;78.04
49759;BME280;35654;46.080;11.118;2022-09-06T05:51:49;99872.56;;;21.31;77.28
49759;BME280;35654;46.080;11.118;2022-09-06T05:54:17;99871.59;;;21.39;76.56
49759;BME280;35654;46.080;11.118;2022-09-06T05:56:44;99868.94;;;21.42;75.69
49759;BME280;35654;46.080;11.118;2022-09-06T05:59:11;99864.72;;;21.48;75.51
49759;BME280;35654;46.080;11.118;2022-09-06T06:01:49;99858.78;;;21.50;75.33
49759;BME280;35654;46.080;11.118;2022-09-06T06:04:17;99864.59;;;21.29;76.95
49759;BME280;35654;46.080;11.118;2022-09-06T06:06:45;99866.03;;;21.11;77.88
49759;BME280;35654;46.080;11.118;2022-09-06T06:09:12;99858.47;;;21.24;77.58
49759;BME280;35654;46.080;11.118;2022-09-06T06:11:39;99866.44;;;21.25;77.67
49759;BME280;35654;46.080;11.118;2022-09-06T06:14:07;99868.00;;;21.38;76.46
49759;BME280;35654;46.080;11.118;2022-09-06T06:16:34;99869.22;;;21.53;75.19
49759;BME280;35654;46.080;11.118;2022-09-06T06:19:00;99867.53;;;21.64;73.60
49759;BME280;35654;46.080;11.118;2022-09-06T06:21:28;99871.16;;;21.80;73.50
49759;BME280;35654;46.080;11.118;2022-09-06T06:23:58;99868.78;;;21.94;73.39
49759;BME280;35654;46.080;11.118;2022-09-06T06:26:27;99860.06;;;22.12;72.27
49759;BME280;35654;46.080;11.118;2022-09-06T06:28:54;99859.63;;;22.25;69.21
49759;BME280;35654;46.080;11.118;2022-09-06T06:31:23;99852.97;;;22.30;67.64
49759;BME280;35654;46.080;11.118;2022-09-06T06:33:50;99865.94;;;22.38;67.66
49759;BME280;35654;46.080;11.118;2022-09-06T06:36:22;99860.97;;;22.47;67.38
49759;BME280;35654;46.080;11.118;2022-09-06T06:38:51;99861.06;;;22.35;67.00
49759;BME280;35654;46.080;11.118;2022-09-06T06:41:21;99863.19;;;22.57;66.36
49759;BME280;35654;46.080;11.118;2022-09-06T06:44:00;99862.22;;;22.65;65.95
49759;BME280;35654;46.080;11.118;2022-09-06T06:46:35;99856.72;;;22.69;66.31
49759;BME280;35654;46.080;11.118;2022-09-06T06:49:02;99859.94;;;22.86;66.27
49759;BME280;35654;46.080;11.118;2022-09-06T06:51:30;99857.06;;;23.02;64.93
49759;BME280;35654;46.080;11.118;2022-09-06T06:53:57;99862.97;;;23.16;63.59
49759;BME280;35654;46.080;11.118;2022-09-06T06:58:50;99862.53;;;23.14;63.50
49759;BME280;35654;46.080;11.118;2022-09-06T07:01:17;99857.59;;;23.07;63.38
49759;BME280;35654;46.080;11.118;2022-09-06T07:03:44;99851.84;;;23.00;63.69
49759;BME280;35654;46.080;11.118;2022-09-06T07:06:11;99853.78;;;23.15;63.43
49759;BME280;35654;46.080;11.118;2022-09-06T07:08:37;99847.81;;;23.36;62.27
49759;BME280;35654;46.080;11.118;2022-09-06T07:11:07;99848.09;;;23.31;62.61
49759;BME280;35654;46.080;11.118;2022-09-06T07:13:34;99853.19;;;23.26;62.99
49759;BME280;35654;46.080;11.118;2022-09-06T07:16:13;99855.03;;;23.56;62.32
49759;BME280;35654;46.080;11.118;2022-09-06T07:18:40;99858.44;;;23.88;60.91
49759;BME280;35654;46.080;11.118;2022-09-06T07:21:11;99857.03;;;23.56;61.26
49759;BME280;35654;46.080;11.118;2022-09-06T07:23:37;99851.03;;;23.76;61.37
49759;BME280;35654;46.080;11.118;2022-09-06T07:26:03;99847.28;;;24.11;60.71
49759;BME280;35654;46.080;11.118;2022-09-06T07:28:29;99852.13;;;24.14;59.85
49759;BME280;35654;46.080;11.118;2022-09-06T07:30:55;99847.13;;;23.81;61.25
49759;BME280;35654;46.080;11.118;2022-09-06T07:33:21;99841.72;;;23.92;60.66
49759;BME280;35654;46.080;11.118;2022-09-06T07:35:56;99837.53;;;23.82;60.36
49759;BME280;35654;46.080;11.118;2022-09-06T07:38:21;99833.59;;;23.83;60.04
49759;BME280;35654;46.080;11.118;2022-09-06T07:40:52;99827.19;;;23.83;59.27
49759;BME280;35654;46.080;11.118;2022-09-06T07:43:18;99839.53;;;23.82;59.42
49759;BME280;35654;46.080;11.118;2022-09-06T07:45:44;99837.13;;;24.03;59.60
49759;BME280;35654;46.080;11.118;2022-09-06T07:48:09;99838.28;;;24.02;59.29
49759;BME280;35654;46.080;11.118;2022-09-06T07:50:34;99838.16;;;24.14;59.52
49759;BME280;35654;46.080;11.118;2022-09-06T07:53:07;99826.97;;;24.14;59.42
49759;BME280;35654;46.080;11.118;2022-09-06T07:55:33;99832.66;;;24.21;59.70
49759;BME280;35654;46.080;11.118;2022-09-06T07:57:58;99830.00;;;24.28;59.33
49759;BME280;35654;46.080;11.118;2022-09-06T08:00:23;99825.31;;;24.36;58.66
49759;BME280;35654;46.080;11.118;2022-09-06T08:02:49;99818.78;;;24.28;58.08
49759;BME280;35654;46.080;11.118;2022-09-06T08:05:14;99823.16;;;24.25;58.87
49759;BME280;35654;46.080;11.118;2022-09-06T08:07:40;99822.84;;;24.30;58.81
49759;BME280;35654;46.080;11.118;2022-09-06T08:10:05;99827.84;;;24.44;58.66
49759;BME280;35654;46.080;11.118;2022-09-06T08:12:31;99829.22;;;24.57;58.08
49759;BME280;35654;46.080;11.118;2022-09-06T08:14:56;99818.31;;;24.75;57.16
49759;BME280;35654;46.080;11.118;2022-09-06T08:17:21;99814.59;;;24.67;55.53
49759;BME280;35654;46.080;11.118;2022-09-06T08:19:47;99814.63;;;24.71;55.88
49759;BME280;35654;46.080;11.118;2022-09-06T08:22:13;99815.50;;;24.75;55.66
49759;BME280;35654;46.080;11.118;2022-09-06T08:24:39;99817.88;;;24.73;55.38
49759;BME280;35654;46.080;11.118;2022-09-06T08:27:04;99816.25;;;24.98;53.94
49759;BME280;35654;46.080;11.118;2022-09-06T08:29:32;99815.91;;;25.03;53.77
49759;BME280;35654;46.080;11.118;2022-09-06T08:31:57;99818.72;;;25.03;54.45
49759;BME280;35654;46.080;11.118;2022-09-06T08:34:23;99817.31;;;24.86;55.63
49759;BME280;35654;46.080;11.118;2022-09-06T08:36:48;99818.19;;;24.94;55.07
49759;BME280;35654;46.080;11.118;2022-09-06T08:39:14;99816.81;;;25.11;54.19
49759;BME280;35654;46.080;11.118;2022-09-06T08:42:01;99812.50;;;25.17;54.91
49759;BME280;35654;46.080;11.118;2022-09-06T08:44:49;99818.38;;;25.41;54.33
49759;BME280;35654;46.080;11.118;2022-09-06T08:47:18;99820.66;;;25.66;53.97
49759;BME280;35654;46.080;11.118;2022-09-06T08:49:46;99816.91;;;25.88;53.80
49759;BME280;35654;46.080;11.118;2022-09-06T09:00:13;99795.47;;;26.13;52.16
49759;BME280;35654;46.080;11.118;2022-09-06T09:02:50;99790.44;;;26.29;52.04
49759;BME280;35654;46.080;11.118;2022-09-06T09:05:26;99788.81;;;26.28;51.78
49759;BME280;35654;46.080;11.118;2022-09-06T09:08:20;99780.44;;;26.35;51.85
49759;BME280;35654;46.080;11.118;2022-09-06T09:11:08;99786.41;;;26.30;51.43
49759;BME280;35654;46.080;11.118;2022-09-06T09:16:14;99772.53;;;26.51;51.48
49759;BME280;35654;46.080;11.118;2022-09-06T09:18:45;99767.41;;;26.75;50.97
49759;BME280;35654;46.080;11.118;2022-09-06T09:21:18;99767.16;;;26.97;49.80
49759;BME280;35654;46.080;11.118;2022-09-06T09:23:50;99759.53;;;26.94;50.38
49759;BME280;35654;46.080;11.118;2022-09-06T09:26:26;99757.91;;;26.90;50.78
49759;BME280;35654;46.080;11.118;2022-09-06T09:29:07;99757.22;;;27.17;49.74
49759;BME280;35654;46.080;11.118;2022-09-06T09:31:59;99749.16;;;27.12;49.05
49759;BME280;35654;46.080;11.118;2022-09-06T09:34:33;99739.25;;;27.47;48.56
49759;BME280;35654;46.080;11.118;2022-09-06T09:37:22;99748.50;;;27.75;47.69
49759;BME280;35654;46.080;11.118;2022-09-06T09:39:56;99744.00;;;27.32;48.27
49759;BME280;35654;46.080;11.118;2022-09-06T09:42:32;99737.97;;;27.37;48.64
49759;BME280;35654;46.080;11.118;2022-09-06T09:45:01;99728.41;;;27.49;48.84
49759;BME280;35654;46.080;11.118;2022-09-06T09:47:29;99729.19;;;27.56;47.64
49759;BME280;35654;46.080;11.118;2022-09-06T09:50:21;99717.56;;;27.75;47.53
49759;BME280;35654;46.080;11.118;2022-09-06T09:52:49;99721.09;;;27.37;48.71
49759;BME280;35654;46.080;11.118;2022-09-06T09:55:15;99710.72;;;27.69;48.10
49759;BME280;35654;46.080;11.118;2022-09-06T09:57:51;99705.91;;;27.98;47.80
49759;BME280;35654;46.080;11.118;2022-09-06T10:00:36;99696.66;;;28.22;45.85
49759;BME280;35654;46.080;11.118;2022-09-06T10:03:26;99700.66;;;28.36;46.13
49759;BME280;35654;46.080;11.118;2022-09-06T10:05:57;99695.47;;;28.13;46.98
49759;BME280;35654;46.080;11.118;2022-09-06T10:08:26;99680.53;;;28.34;46.74
49759;BME280;35654;46.080;11.118;2022-09-06T10:10:58;99678.38;;;28.76;45.22
49759;BME280;35654;46.080;11.118;2022-09-06T10:13:28;99676.41;;;28.70;44.60
49759;BME280;35654;46.080;11.118;2022-09-06T10:16:01;99665.75;;;29.06;44.05
49759;BME280;35654;46.080;11.118;2022-09-06T10:21:15;99659.78;;;29.55;42.08
49759;BME280;35654;46.080;11.118;2022-09-06T10:26:31;99652.59;;;29.47;41.24
49759;BME280;35654;46.080;11.118;2022-09-06T10:29:06;99640.41;;;29.57;41.97
49759;BME280;35654;46.080;11.118;2022-09-06T10:40:10;99634.78;;;30.42;38.75
49759;BME280;35654;46.080;11.118;2022-09-06T10:42:49;99634.00;;;31.02;38.78
49759;BME280;35654;46.080;11.118;2022-09-06T11:01:36;99586.50;;;40.48;21.99
49759;BME280;35654;46.080;11.118;2022-09-06T11:04:07;99589.03;;;40.70;22.34
49759;BME280;35654;46.080;11.118;2022-09-06T11:06:39;99587.66;;;39.89;22.79
49759;BME280;35654;46.080;11.118;2022-09-06T11:09:37;99589.25;;;39.66;23.57
49759;BME280;35654;46.080;11.118;2022-09-06T11:12:11;99578.72;;;40.78;22.76
49759;BME280;35654;46.080;11.118;2022-09-06T11:14:38;99579.28;;;39.52;23.62
49759;BME280;35654;46.080;11.118;2022-09-06T11:19:56;99568.28;;;39.51;24.06
49759;BME280;35654;46.080;11.118;2022-09-06T11:25:28;99562.31;;;39.73;24.26
49759;BME280;35654;46.080;11.118;2022-09-06T11:28:06;99560.66;;;39.81;23.80
49759;BME280;35654;46.080;11.118;2022-09-06T11:30:39;99550.00;;;40.49;23.14
49759;BME280;35654;46.080;11.118;2022-09-06T11:33:27;99549.31;;;40.98;23.12
49759;BME280;35654;46.080;11.118;2022-09-06T11:39:05;99541.28;;;40.29;23.27
49759;BME280;35654;46.080;11.118;2022-09-06T11:41:41;99537.06;;;41.52;22.21
49759;BME280;35654;46.080;11.118;2022-09-06T11:44:08;99546.53;;;41.03;22.51
49759;BME280;35654;46.080;11.118;2022-09-06T11:49:30;99539.03;;;39.94;23.36
49759;BME280;35654;46.080;11.118;2022-09-06T11:51:58;99530.31;;;39.89;23.69
49759;BME280;35654;46.080;11.118;2022-09-06T11:54:36;99517.72;;;41.33;22.21
49759;BME280;35654;46.080;11.118;2022-09-06T11:57:15;99510.91;;;41.70;22.08
49759;BME280;35654;46.080;11.118;2022-09-06T11:59:57;99509.41;;;41.55;21.89
49759;BME280;35654;46.080;11.118;2022-09-06T12:02:41;99503.81;;;41.11;22.22
49759;BME280;35654;46.080;11.118;2022-09-06T12:05:17;99499.06;;;41.43;22.09
49759;BME280;35654;46.080;11.118;2022-09-06T12:13:41;99479.78;;;41.69;21.76
49759;BME280;35654;46.080;11.118;2022-09-06T12:16:14;99476.22;;;39.96;24.15
49759;BME280;35654;46.080;11.118;2022-09-06T12:24:02;99472.00;;;39.30;24.84
49759;BME280;35654;46.080;11.118;2022-09-06T12:26:53;99467.00;;;41.70;22.04
49759;BME280;35654;46.080;11.118;2022-09-06T12:29:34;99458.53;;;40.71;22.75
49759;BME280;35654;46.080;11.118;2022-09-06T12:32:00;99455.81;;;40.97;22.62
49759;BME280;35654;46.080;11.118;2022-09-06T12:34:34;99451.13;;;41.54;21.93
49759;BME280;35654;46.080;11.118;2022-09-06T12:37:05;99451.47;;;40.23;23.07
49759;BME280;35654;46.080;11.118;2022-09-06T12:39:37;99444.31;;;40.62;22.88
49759;BME280;35654;46.080;11.118;2022-09-06T12:42:10;99442.63;;;40.41;22.80
49759;BME280;35654;46.080;11.118;2022-09-06T12:44:46;99442.53;;;39.06;24.61
49759;BME280;35654;46.080;11.118;2022-09-06T12:47:41;99436.94;;;39.73;24.52
49759;BME280;35654;46.080;11.118;2022-09-06T12:50:24;99425.50;;;40.32;23.35
49759;BME280;35654;46.080;11.118;2022-09-06T12:53:01;99426.03;;;41.14;22.48
49759;BME280;35654;46.080;11.118;2022-09-06T12:55:44;99414.59;;;41.35;22.07
49759;BME280;35654;46.080;11.118;2022-09-06T12:58:11;99403.88;;;42.07;21.30
49759;BME280;35654;46.080;11.118;2022-09-06T13:00:51;99408.78;;;39.33;24.18
49759;BME280;35654;46.080;11.118;2022-09-06T13:03:27;99400.84;;;37.88;25.91
49759;BME280;35654;46.080;11.118;2022-09-06T13:05:54;99394.34;;;38.80;25.14
49759;BME280;35654;46.080;11.118;2022-09-06T13:08:37;99389.44;;;39.81;24.06
49759;BME280;35654;46.080;11.118;2022-09-06T13:11:07;99388.06;;;41.97;21.52
49759;BME280;35654;46.080;11.118;2022-09-06T13:13:34;99379.22;;;41.49;21.75
49759;BME280;35654;46.080;11.118;2022-09-06T13:16:00;99379.88;;;41.64;21.83
49759;BME280;35654;46.080;11.118;2022-09-06T13:18:35;99372.91;;;43.01;20.72
49759;BME280;35654;46.080;11.118;2022-09-06T13:21:06;99372.41;;;44.78;19.18
49759;BME280;35654;46.080;11.118;2022-09-06T13:23:46;99373.50;;;44.70;18.52
49759;BME280;35654;46.080;11.118;2022-09-06T13:26:13;99369.75;;;43.64;19.64
49759;BME280;35654;46.080;11.118;2022-09-06T13:31:32;99357.19;;;42.97;21.31
49759;BME280;35654;46.080;11.118;2022-09-06T13:34:00;99368.41;;;42.15;21.78
49759;BME280;35654;46.080;11.118;2022-09-06T13:36:30;99357.66;;;42.53;21.40
49759;BME280;35654;46.080;11.118;2022-09-06T13:38:57;99344.22;;;42.38;21.62
49759;BME280;35654;46.080;11.118;2022-09-06T13:46:40;99332.38;;;40.47;23.72
49759;BME280;35654;46.080;11.118;2022-09-06T13:49:05;99320.34;;;41.44;22.68
49759;BME280;35654;46.080;11.118;2022-09-06T13:51:31;99319.91;;;41.51;22.39
49759;BME280;35654;46.080;11.118;2022-09-06T13:54:07;99313.00;;;40.42;24.22
49759;BME280;35654;46.080;11.118;2022-09-06T13:56:35;99318.28;;;40.29;24.23
49759;BME280;35654;46.080;11.118;2022-09-06T13:59:02;99314.44;;;39.06;25.79
49759;BME280;35654;46.080;11.118;2022-09-06T14:01:29;99312.97;;;39.49;24.41
49759;BME280;35654;46.080;11.118;2022-09-06T14:03:54;99321.03;;;37.39;27.81
49759;BME280;35654;46.080;11.118;2022-09-06T14:06:20;99323.75;;;38.03;26.79
49759;BME280;35654;46.080;11.118;2022-09-06T14:08:46;99308.53;;;39.10;25.64
49759;BME280;35654;46.080;11.118;2022-09-06T14:11:14;99310.00;;;39.87;24.96
49759;BME280;35654;46.080;11.118;2022-09-06T14:13:42;99302.47;;;41.86;22.80
49759;BME280;35654;46.080;11.118;2022-09-06T14:16:08;99302.84;;;38.38;25.85
49759;BME280;35654;46.080;11.118;2022-09-06T14:18:34;99296.94;;;40.01;24.89
49759;BME280;35654;46.080;11.118;2022-09-06T14:21:06;99296.66;;;39.40;25.11
49759;BME280;35654;46.080;11.118;2022-09-06T14:23:32;99292.44;;;39.80;25.02
49759;BME280;35654;46.080;11.118;2022-09-06T14:25:59;99295.81;;;39.11;25.77
49759;BME280;35654;46.080;11.118;2022-09-06T14:28:30;99293.75;;;38.31;27.26
49759;BME280;35654;46.080;11.118;2022-09-06T14:31:09;99296.56;;;37.65;28.00
49759;BME280;35654;46.080;11.118;2022-09-06T14:33:35;99284.13;;;38.99;26.80
49759;BME280;35654;46.080;11.118;2022-09-06T14:36:08;99284.56;;;36.21;30.32
49759;BME280;35654;46.080;11.118;2022-09-06T14:38:35;99283.13;;;37.99;27.90
49759;BME280;35654;46.080;11.118;2022-09-06T14:41:08;99279.91;;;35.44;31.46
49759;BME280;35654;46.080;11.118;2022-09-06T14:43:43;99281.56;;;36.25;30.14
49759;BME280;35654;46.080;11.118;2022-09-06T14:46:32;99280.56;;;36.59;30.02
49759;BME280;35654;46.080;11.118;2022-09-06T14:49:05;99274.19;;;35.44;31.61
49759;BME280;35654;46.080;11.118;2022-09-06T14:51:32;99272.06;;;35.88;31.51